createdAt,value
2022-08-07T09:14:59.765Z,97603.56
2022-08-07T09:18:22.877Z,97604.11
2022-08-07T09:21:34.264Z,97605.23
2022-08-07T09:24:58.747Z,97606.27
2022-08-07T09:27:54.758Z,97598.30
2022-08-07T09:30:28.026Z,97595.83
2022-08-07T09:33:40.927Z,97597.70
2022-08-07T09:37:00.112Z,97600.88
2022-08-07T09:40:17.895Z,97598.74
2022-08-07T09:44:06.500Z,97593.52
2022-08-07T09:47:50.340Z,97583.55
2022-08-07T09:50:19.632Z,97582.17
2022-08-07T09:53:04.617Z,97586.70
2022-08-07T09:56:04.677Z,97585.28
2022-08-07T09:59:21.954Z,97580.04
2022-08-07T10:02:34.504Z,97578.11
2022-08-07T10:06:02.734Z,97573.11
2022-08-07T10:09:19.502Z,97569.02
2022-08-07T10:12:53.091Z,97567.84
2022-08-07T10:16:09.729Z,97560.53
2022-08-07T10:19:05.520Z,97557.35
2022-08-07T10:22:51.024Z,97558.23
2022-08-07T10:26:32.040Z,97553.91
2022-08-07T10:29:45.834Z,97551.04
2022-08-07T10:34:15.592Z,97550.14
2022-08-07T10:36:52.378Z,97552.95
2022-08-07T10:40:09.067Z,97550.77
2022-08-07T10:43:46.646Z,97547.63
2022-08-07T10:46:44.890Z,97546.83
2022-08-07T10:49:57.819Z,97545.96
2022-08-07T10:53:07.961Z,97547.16
2022-08-07T10:56:20.850Z,97539.67
2022-08-07T10:59:55.321Z,97540.08
2022-08-07T11:03:04.207Z,97537.14
2022-08-07T11:06:29.717Z,97530.10
2022-08-07T11:09:13.093Z,97523.42
2022-08-07T11:13:02.292Z,97523.27
2022-08-07T11:15:54.493Z,97510.28
2022-08-07T11:19:37.179Z,97502.02
2022-08-07T11:22:46.381Z,97510.01
2022-08-07T11:26:06.307Z,97508.66
2022-08-07T11:29:41.136Z,97501.35
2022-08-07T11:33:02.713Z,97497.60
2022-08-07T11:36:12.751Z,97495.27
2022-08-07T11:39:59.877Z,97491.54
2022-08-07T11:43:15.906Z,97490.94
2022-08-07T11:46:29.944Z,97491.45
2022-08-07T11:49:50.217Z,97486.10
2022-08-07T11:52:45.957Z,97478.95
2022-08-07T11:56:15.565Z,97475.84
2022-08-07T12:03:01.631Z,97466.45
2022-08-07T12:06:36.987Z,97459.61
2022-08-07T12:09:54.197Z,97460.27
2022-08-07T12:13:16.918Z,97458.55
2022-08-07T12:16:05.607Z,97452.37
2022-08-07T12:18:54.930Z,97447.23
2022-08-07T12:22:39.355Z,97440.69
2022-08-07T12:26:05.724Z,97437.90
2022-08-07T12:28:31.346Z,97435.40
2022-08-07T12:31:53.138Z,97438.14
2022-08-07T12:34:49.427Z,97436.00
2022-08-07T12:38:09.244Z,97434.08
2022-08-07T12:44:01.298Z,97426.31
2022-08-07T12:47:27.138Z,97421.20
2022-08-07T12:50:38.420Z,97416.25
2022-08-07T12:54:02.753Z,97419.31
2022-08-07T12:56:41.525Z,97421.61
2022-08-07T12:59:20.594Z,97423.05
2022-08-07T13:02:39.356Z,97419.00
2022-08-07T13:06:03.552Z,97415.50
2022-08-07T13:10:10.249Z,97415.39
2022-08-07T13:12:22.228Z,97410.04
2022-08-07T13:15:59.315Z,97408.48
2022-08-07T13:19:45.954Z,97405.67
2022-08-07T13:22:45.187Z,97408.97
2022-08-07T13:25:34.665Z,97407.23
2022-08-07T13:28:53.242Z,97403.47
2022-08-07T13:32:23.821Z,97401.02
2022-08-07T13:35:11.565Z,97401.38
2022-08-07T13:38:06.341Z,97402.40
2022-08-07T13:40:51.231Z,97399.38
2022-08-07T13:43:22.667Z,97400.86
2022-08-07T13:46:24.822Z,97398.80
2022-08-07T13:48:58.572Z,97394.67
2022-08-07T13:52:22.598Z,97395.22
2022-08-07T13:54:36.008Z,97396.70
2022-08-07T13:57:12.247Z,97394.42
2022-08-07T13:59:54.948Z,97390.04
2022-08-07T14:02:49.285Z,97392.77
2022-08-07T14:05:39.946Z,97394.63
2022-08-07T14:08:10.818Z,97397.78
2022-08-07T14:11:15.395Z,97396.75
2022-08-07T14:14:43.043Z,97396.90
2022-08-07T14:18:23.522Z,97400.69
2022-08-07T14:20:54.452Z,97401.23
2022-08-07T14:23:58.878Z,97419.70
2022-08-07T14:26:58.619Z,97418.86
2022-08-07T14:30:09.703Z,97415.71
2022-08-07T14:33:10.015Z,97419.78
2022-08-07T14:35:44.674Z,97416.95
2022-08-07T14:38:41.495Z,97418.69
2022-08-07T14:42:20.711Z,97424.52
2022-08-07T14:44:36.201Z,97427.73
2022-08-07T14:47:14.626Z,97424.11
2022-08-07T14:49:59.340Z,97422.56
2022-08-07T14:52:37.745Z,97424.92
2022-08-07T14:55:55.593Z,97429.32
2022-08-07T14:58:31.454Z,97438.79
2022-08-07T15:01:21.507Z,97433.34
2022-08-07T15:06:40.129Z,97434.77
2022-08-07T15:10:06.032Z,97438.06
2022-08-07T15:13:23.148Z,97443.19
2022-08-07T15:16:00.072Z,97444.30
2022-08-07T15:18:55.014Z,97444.95
2022-08-07T15:21:43.937Z,97446.16
2022-08-07T15:25:13.967Z,97447.20
2022-08-07T15:27:18.750Z,97447.17
2022-08-07T15:30:04.881Z,97451.31
2022-08-07T15:33:03.982Z,97459.14
2022-08-07T15:36:01.947Z,97455.86
2022-08-07T15:42:45.918Z,97470.48
2022-08-07T15:45:19.399Z,97470.08
2022-08-07T15:48:29.797Z,97479.55
2022-08-07T15:51:15.042Z,97477.92
2022-08-07T15:54:13.157Z,97479.91
2022-08-07T15:57:01.309Z,97481.59
2022-08-07T15:59:51.414Z,97483.70
2022-08-07T16:03:01.796Z,97487.95
2022-08-07T16:05:59.144Z,97486.39
2022-08-07T16:09:24.311Z,97490.30
2022-08-07T16:13:01.288Z,97490.44
2022-08-07T16:16:48.086Z,97488.34
2022-08-07T16:19:42.613Z,97491.45
2022-08-07T16:22:55.782Z,97492.17
2022-08-07T16:26:30.751Z,97489.23
2022-08-07T16:30:11.593Z,97497.27
2022-08-07T16:34:02.136Z,97501.04
2022-08-07T16:37:01.974Z,97499.76
2022-08-07T16:40:36.305Z,97503.84
2022-08-07T16:44:40.513Z,97506.36
2022-08-07T16:48:04.118Z,97513.22
2022-08-07T16:51:20.894Z,97517.64
2022-08-07T16:54:39.738Z,97517.27
2022-08-07T16:58:03.891Z,97527.34
2022-08-07T17:00:40.281Z,97526.67
2022-08-07T17:03:58.038Z,97529.67
2022-08-07T17:07:02.727Z,97531.33
2022-08-07T17:10:36.989Z,97533.98
2022-08-07T17:14:19.640Z,97534.71
2022-08-07T17:16:56.085Z,97537.83
2022-08-07T17:20:02.484Z,97539.83
2022-08-07T17:23:42.602Z,97543.64
2022-08-07T17:27:05.025Z,97541.28
2022-08-07T17:30:15.973Z,97541.58
2022-08-07T17:34:18.029Z,97546.17
2022-08-07T17:36:13.527Z,97545.77
2022-08-07T17:39:53.116Z,97545.85
2022-08-07T17:42:59.916Z,97548.71
2022-08-07T17:45:58.992Z,97556.91
2022-08-07T17:48:44.446Z,97555.35
2022-08-07T17:51:21.384Z,97553.90
2022-08-07T17:54:29.533Z,97552.25
2022-08-07T17:57:56.049Z,97552.45
2022-08-07T18:00:33.045Z,97553.39
2022-08-07T18:03:20.311Z,97553.08
2022-08-07T18:06:33.324Z,97557.14
2022-08-07T18:10:05.179Z,97553.77
2022-08-07T18:13:52.193Z,97559.50
2022-08-07T18:18:33.118Z,97567.60
2022-08-07T18:21:38.365Z,97567.75
2022-08-07T18:24:45.006Z,97570.53
2022-08-07T18:28:35.864Z,97571.74
2022-08-07T18:31:38.877Z,97581.80
2022-08-07T18:35:11.164Z,97588.17
2022-08-07T18:38:57.911Z,97593.90
2022-08-07T18:41:44.611Z,97596.03
2022-08-07T18:45:43.048Z,97600.68
2022-08-07T18:48:38.206Z,97606.87
2022-08-07T18:51:04.746Z,97607.64
2022-08-07T18:54:30.907Z,97607.92
2022-08-07T18:57:40.633Z,97605.67
2022-08-07T19:00:35.652Z,97602.55
2022-08-07T19:03:49.516Z,97608.25
2022-08-07T19:06:48.404Z,97608.36
2022-08-07T19:09:55.426Z,97607.91
2022-08-07T19:13:21.576Z,97605.55
2022-08-07T19:17:04.930Z,97604.29
2022-08-07T19:20:03.820Z,97611.23
2022-08-07T19:26:24.868Z,97625.05
2022-08-07T19:31:05.485Z,97617.03
2022-08-07T19:32:17.025Z,97618.14
2022-08-07T19:35:16.505Z,97617.94
2022-08-07T19:37:58.322Z,97618.98
2022-08-07T19:41:44.547Z,97619.13
2022-08-07T19:44:43.791Z,97632.25
2022-08-07T19:47:51.150Z,97631.72
2022-08-07T19:50:43.715Z,97633.48
2022-08-07T19:54:32.246Z,97633.55
2022-08-07T19:57:52.020Z,97638.69
2022-08-07T20:00:01.929Z,97640.91
2022-08-07T20:03:35.549Z,97638.83
2022-08-07T20:06:28.467Z,97634.48
2022-08-07T20:09:01.406Z,97631.46
2022-08-07T20:12:22.706Z,97630.65
2022-08-07T20:18:03.596Z,97638.48
2022-08-07T20:20:44.983Z,97638.84
2022-08-07T20:23:42.897Z,97638.64
2022-08-07T20:26:15.354Z,97633.92
2022-08-07T20:29:10.779Z,97637.60
2022-08-07T20:31:57.001Z,97634.61
2022-08-07T20:34:49.522Z,97632.30
2022-08-07T20:37:36.917Z,97625.89
2022-08-07T20:40:33.367Z,97624.33
2022-08-07T20:43:14.679Z,97629.20
2022-08-07T20:46:25.958Z,97632.71
2022-08-07T20:49:00.761Z,97633.77
2022-08-07T20:51:50.262Z,97631.55
2022-08-07T20:54:31.963Z,97637.80
2022-08-07T20:57:22.413Z,97639.90
2022-08-07T21:00:09.200Z,97632.70
2022-08-07T21:02:58.701Z,97635.17
2022-08-07T21:05:52.759Z,97640.65
2022-08-07T21:09:00.470Z,97644.47
2022-08-07T21:11:40.347Z,97645.91
2022-08-07T21:14:33.023Z,97646.34
2022-08-07T21:18:03.550Z,97641.34
2022-08-07T21:20:06.138Z,97640.55
2022-08-07T21:22:51.126Z,97641.27
2022-08-07T21:25:56.329Z,97645.17
2022-08-07T21:28:49.267Z,97649.16
2022-08-07T21:32:10.968Z,97650.77
2022-08-07T21:34:56.142Z,97659.68
2022-08-07T21:37:57.863Z,97659.41
2022-08-07T21:40:49.980Z,97662.74
2022-08-07T21:44:01.629Z,97664.48
2022-08-07T21:47:01.714Z,97670.27
2022-08-07T21:50:14.546Z,97669.66
2022-08-07T21:53:30.502Z,97666.73
2022-08-07T21:56:36.253Z,97670.34
2022-08-07T22:00:05.363Z,97667.35
2022-08-07T22:03:32.163Z,97667.99
2022-08-07T22:06:28.747Z,97670.05
2022-08-07T22:09:10.934Z,97668.64
2022-08-07T22:12:04.846Z,97668.42
2022-08-07T22:16:40.275Z,97668.79
2022-08-07T22:18:06.791Z,97670.17
2022-08-07T22:20:59.376Z,97673.94
2022-08-07T22:23:58.550Z,97673.95
2022-08-07T22:26:47.695Z,97680.66
2022-08-07T22:29:34.022Z,97678.49
2022-08-07T22:32:36.809Z,97676.52
2022-08-07T22:35:16.738Z,97678.99
2022-08-07T22:38:20.309Z,97679.11
2022-08-07T22:41:02.946Z,97677.77
2022-08-07T22:43:58.921Z,97681.55
2022-08-07T22:47:16.963Z,97681.59
2022-08-07T22:49:54.389Z,97679.70
2022-08-07T22:52:37.285Z,97677.52
2022-08-07T22:56:10.896Z,97681.03
2022-08-07T22:59:32.725Z,97681.59
2022-08-07T23:02:06.933Z,97684.31
2022-08-07T23:06:08.600Z,97684.75
2022-08-07T23:08:30.608Z,97681.03
2022-08-07T23:11:12.878Z,97678.45
2022-08-07T23:14:47.502Z,97682.76
2022-08-07T23:17:49.121Z,97683.86
2022-08-07T23:20:52.722Z,97686.25
2022-08-07T23:24:06.490Z,97689.21
2022-08-07T23:27:01.322Z,97688.95
2022-08-07T23:30:37.094Z,97690.70
2022-08-07T23:34:35.500Z,97691.52
2022-08-07T23:36:43.058Z,97691.02
2022-08-07T23:39:25.598Z,97691.96
2022-08-07T23:42:30.516Z,97688.98
2022-08-07T23:45:33.235Z,97689.44
2022-08-07T23:48:43.071Z,97687.25
2022-08-07T23:53:17.606Z,97687.45
2022-08-07T23:55:12.688Z,97689.20
2022-08-07T23:58:50.831Z,97686.08
